NCAR-RAP Real-Time Weather Data

Output produced by METARs form (10 April 2020  07:15 UTC)
found at http://weather.rap.ucar.edu/surface/
 
KRNO 100655Z 00000KT 10SM -RA FEW034 BKN045 OVC075 07/04 A3009 RMK AO2 RAE01B20 SLP168 P0000 T00720044
KRNO 100555Z 00000KT 10SM -RA FEW035 OVC065 07/04 A3008 RMK AO2 RAE11B47 SLP168 P0000 60000 T00720044 10128 20072 50015
KRNO 100455Z 17004KT 10SM -RA FEW025 BKN045 OVC090 08/04 A3009 RMK AO2 RAB25 SLP173 P0000 T00780039
KRNO 100355Z 16009KT 10SM FEW030 BKN050 OVC110 08/02 A3008 RMK AO2 SLP167 T00830022
KRNO 100255Z 14010KT 10SM FEW045 BKN110 09/02 A3003 RMK AO2 SLP149 60000 T00890022 51012
KRNO 100155Z 18012KT 10SM FEW050 BKN110 BKN150 09/02 A3001 RMK AO2 RAE05 SLP145 VIRGA MTN TOPS OBSCD DSNT SW P0000 T00940017
KRNO 100055Z 15014KT 10SM -RA FEW050 BKN080 BKN140 11/01 A3002 RMK AO2 RAB52 SLP144 MTN TOPS OBSCD DSNT SW P0000 T01060011
KRNO 092355Z 12004KT 10SM FEW050 BKN075 BKN140 13/01 A2999 RMK AO2 SLP128 VIRGA CLDS TPG MTNS DSNT SW 60000 T01280011 10139 20106 56013
KRNO 092255Z 08005KT 10SM FEW050 BKN090 BKN140 13/01 A3000 RMK AO2 SLP131 VIRGA CLDS TPG MTNS DSNT SW T01330011
KRNO 092155Z VRB03KT 10SM SCT050 BKN100 BKN140 13/01 A3001 RMK AO2 SLP133 VIRGA MTN TOPS OBSCD DSNT SW T01280011
KRNO 092055Z 07005KT 10SM SCT045 BKN070 BKN110 11/02 A3003 RMK AO2 SLP143 MTN TOPS OBSCD DSNT SW THRU W 60000 T01110017 58001
KRNO 091955Z 09009KT 10SM BKN050 BKN080 BKN120 11/02 A3004 RMK AO2 RAB22E35 SLP147 ACSL DSNT W THRU N MTN TOPS OBSCD DSNT SW P0000 T01110022
KRNO 091855Z 10010G15KT 10SM SCT050 BKN080 BKN110 13/01 A3004 RMK AO2 SLP146 ACSL DSNT NW THRU NE AND SW MTN TOPS OBSCD DSNT SW T01280006
KRNO 091755Z 18005KT 10SM SCT055 BKN110 BKN180 11/01 A3003 RMK AO2 RAE09 SLP144 ACSL DSNT W THRU NW MTN TOPS OBSCD DSNT SW P0000 60000 T01060011 10111 20083 50009
KRNO 091655Z 15010KT 10SM -RA FEW040 BKN055 BKN085 10/02 A3004 RMK AO2 RAB52 SLP146 MTN TOPS OBSCD DSNT SE AND SW P0000 T01000017
KRNO 091555Z 19005KT 10SM FEW040 BKN085 BKN120 BKN180 10/01 A3001 RMK AO2 SLP138 T01000011
KRNO 091455Z 18005KT 10SM FEW030 BKN085 BKN110 09/01 A3000 RMK AO2 SLP133 T00940006 53016
KRNO 091355Z 09007KT 10SM FEW090 BKN110 BKN150 09/M01 A2998 RMK AO2 SLP122 T00941006
KRNO 091255Z 00000KT 10SM BKN110 09/01 A2996 RMK AO2 SLP116 T00890006
KRNO 091155Z 08004KT 10SM BKN110 10/M01 A2995 RMK AO2 SLP108 T01001006 10133 20089 50003
KRNO 091055Z 00000KT 10SM BKN130 11/M02 A2995 RMK AO2 SLP109 T01111022